createdAt,value
2023-08-15T00:02:21.139Z,81.20
2023-08-15T00:04:48.708Z,81.13
2023-08-15T00:07:18.345Z,81.44
2023-08-15T00:09:50.586Z,81.92
2023-08-15T00:12:20.400Z,82.33
2023-08-15T00:14:51.144Z,82.42
2023-08-15T00:17:20.690Z,82.31
2023-08-15T00:19:48.817Z,82.54
2023-08-15T00:22:18.726Z,82.63
2023-08-15T00:24:47.382Z,82.56
2023-08-15T00:27:16.768Z,82.70
2023-08-15T00:29:48.383Z,82.74
2023-08-15T00:32:17.178Z,82.65
2023-08-15T00:34:46.104Z,82.53
2023-08-15T00:37:14.613Z,82.72
2023-08-15T00:39:42.730Z,82.65
2023-08-15T00:42:11.595Z,82.67
2023-08-15T00:44:44.844Z,82.85
2023-08-15T00:47:12.959Z,82.69
2023-08-15T00:49:42.927Z,82.35
2023-08-15T00:52:13.890Z,82.35
2023-08-15T00:54:49.361Z,82.33
2023-08-15T00:57:21.560Z,82.41
2023-08-15T00:59:50.850Z,82.85
2023-08-15T01:02:21.777Z,82.79
2023-08-15T01:04:52.417Z,82.79
2023-08-15T01:07:21.251Z,82.42
2023-08-15T01:09:49.480Z,82.34
2023-08-15T01:12:33.194Z,82.34
2023-08-15T01:15:06.835Z,82.26
2023-08-15T01:18:03.199Z,82.82
2023-08-15T01:20:34.599Z,82.78
2023-08-15T01:23:07.827Z,82.97
2023-08-15T01:25:43.413Z,83.08
2023-08-15T01:28:13.766Z,83.26
2023-08-15T01:30:58.554Z,83.51
2023-08-15T01:33:38.896Z,84.17
2023-08-15T01:36:27.697Z,84.02
2023-08-15T01:39:03.266Z,83.90
2023-08-15T01:41:37.253Z,83.57
2023-08-15T01:44:08.571Z,83.35
2023-08-15T01:46:37.632Z,83.50
2023-08-15T01:49:05.276Z,83.16
2023-08-15T01:51:34.395Z,83.05
2023-08-15T01:54:04.868Z,82.98
2023-08-15T01:56:35.104Z,82.99
2023-08-15T01:59:03.119Z,83.06
2023-08-15T02:01:32.275Z,83.23
2023-08-15T02:04:00.113Z,83.29
2023-08-15T02:06:33.173Z,82.99
2023-08-15T02:09:02.149Z,83.00
2023-08-15T02:11:36.094Z,83.42
2023-08-15T02:14:04.840Z,83.26
2023-08-15T02:16:35.851Z,83.54
2023-08-15T02:19:04.734Z,83.32
2023-08-15T02:21:34.157Z,83.33
2023-08-15T02:24:03.110Z,83.36
2023-08-15T02:26:31.601Z,83.17
2023-08-15T02:29:00.518Z,83.15
2023-08-15T02:31:30.595Z,83.26
2023-08-15T02:33:58.248Z,83.46
2023-08-15T02:36:25.870Z,83.12
2023-08-15T02:38:53.768Z,83.59
2023-08-15T02:41:25.004Z,84.13
2023-08-15T02:43:53.803Z,84.44
2023-08-15T02:46:23.498Z,84.91
2023-08-15T02:48:57.406Z,85.06
2023-08-15T02:51:29.008Z,85.38
2023-08-15T02:53:57.201Z,85.17
2023-08-15T02:56:26.588Z,85.31
2023-08-15T02:58:56.465Z,85.55
2023-08-15T03:01:28.004Z,85.12
2023-08-15T03:03:55.615Z,85.41
2023-08-15T03:06:25.653Z,85.94
2023-08-15T03:08:53.185Z,85.96
2023-08-15T03:11:24.429Z,85.98
2023-08-15T03:13:52.159Z,86.11
2023-08-15T03:16:19.868Z,85.90
2023-08-15T03:18:49.943Z,86.22
2023-08-15T03:21:20.244Z,86.69
2023-08-15T03:23:48.403Z,87.14
2023-08-15T03:26:17.067Z,87.44
2023-08-15T03:28:50.124Z,87.46
2023-08-15T03:31:18.121Z,87.83
2023-08-15T03:33:52.840Z,87.65
2023-08-15T03:36:21.058Z,87.88
2023-08-15T03:38:49.773Z,87.85
2023-08-15T03:41:19.884Z,87.64
2023-08-15T03:43:49.103Z,87.44
2023-08-15T03:46:21.537Z,87.43
2023-08-15T03:48:51.289Z,86.99
2023-08-15T03:51:44.216Z,86.81
2023-08-15T03:54:15.716Z,87.05
2023-08-15T03:56:43.846Z,87.01
2023-08-15T03:59:13.372Z,86.97
2023-08-15T04:01:44.129Z,87.16
2023-08-15T04:04:12.155Z,87.23
2023-08-15T04:06:42.715Z,87.57
2023-08-15T04:09:10.342Z,87.46
2023-08-15T04:11:38.210Z,87.63
2023-08-15T04:14:07.990Z,87.01
2023-08-15T04:16:36.941Z,87.04
2023-08-15T04:19:05.353Z,86.76
2023-08-15T04:21:34.135Z,86.85
2023-08-15T04:24:04.338Z,86.46
2023-08-15T04:26:32.201Z,85.86
2023-08-15T04:29:01.015Z,85.72
2023-08-15T04:31:35.764Z,85.68
2023-08-15T04:34:08.199Z,85.60
2023-08-15T04:36:45.562Z,85.05
2023-08-15T04:39:15.618Z,84.50
2023-08-15T04:41:46.829Z,84.25
2023-08-15T04:44:15.297Z,84.65
2023-08-15T04:46:43.003Z,84.28
2023-08-15T04:49:17.788Z,83.98
2023-08-15T04:51:46.462Z,83.97
2023-08-15T04:54:14.053Z,83.76
2023-08-15T04:56:42.926Z,83.73
2023-08-15T04:59:10.496Z,83.76
2023-08-15T05:01:38.049Z,83.58
2023-08-15T05:04:05.999Z,83.90
2023-08-15T05:06:36.390Z,83.50
2023-08-15T05:09:04.010Z,82.58
2023-08-15T05:11:33.817Z,81.69
2023-08-15T05:14:03.925Z,82.36
2023-08-15T05:16:32.113Z,82.02
2023-08-15T05:19:00.799Z,82.47
2023-08-15T05:21:29.605Z,82.46
2023-08-15T05:23:58.713Z,82.54
2023-08-15T05:26:27.882Z,82.46
2023-08-15T05:28:57.600Z,81.80
2023-08-15T05:31:28.681Z,81.75
2023-08-15T05:33:57.288Z,81.34
2023-08-15T05:36:26.059Z,81.59
2023-08-15T05:38:53.688Z,81.66
2023-08-15T05:41:25.715Z,81.44
2023-08-15T05:43:54.938Z,80.73
2023-08-15T05:46:27.794Z,80.33
2023-08-15T05:48:56.420Z,79.19
2023-08-15T05:51:24.208Z,78.78
2023-08-15T05:53:53.011Z,78.07
2023-08-15T05:56:21.798Z,77.43
2023-08-15T05:58:49.833Z,76.82
2023-08-15T06:01:17.377Z,77.26
2023-08-15T06:03:52.415Z,78.02
2023-08-15T06:06:23.106Z,77.57
2023-08-15T06:08:50.687Z,76.88
2023-08-15T06:11:20.872Z,76.69
2023-08-15T06:13:48.843Z,76.10
2023-08-15T06:16:17.712Z,75.67
2023-08-15T06:18:46.701Z,76.06
2023-08-15T06:21:17.497Z,75.90
2023-08-15T06:23:53.892Z,75.70
2023-08-15T06:26:24.052Z,75.47
2023-08-15T06:31:31.447Z,74.40
2023-08-15T06:33:59.679Z,73.62
2023-08-15T06:36:31.415Z,73.27
2023-08-15T06:39:02.061Z,72.32
2023-08-15T06:41:29.776Z,72.08
2023-08-15T06:43:58.133Z,71.06
2023-08-15T06:46:26.414Z,70.97
2023-08-15T06:48:54.470Z,70.54
2023-08-15T06:51:22.203Z,70.18
2023-08-15T06:53:54.123Z,69.79
2023-08-15T06:56:22.366Z,69.26
2023-08-15T06:58:52.256Z,68.94
2023-08-15T07:01:20.431Z,69.37
2023-08-15T07:03:48.218Z,69.11
2023-08-15T07:06:17.295Z,68.61
2023-08-15T07:08:45.544Z,68.46
2023-08-15T07:11:13.212Z,68.49
2023-08-15T07:13:46.180Z,68.63
2023-08-15T07:16:16.866Z,69.34
2023-08-15T07:18:44.497Z,69.12
2023-08-15T07:21:12.129Z,69.37
2023-08-15T07:23:40.485Z,69.29
2023-08-15T07:26:09.565Z,69.49
2023-08-15T07:28:37.297Z,69.94
2023-08-15T07:31:04.962Z,68.72
2023-08-15T07:33:33.866Z,68.12
2023-08-15T07:36:03.207Z,67.68
2023-08-15T07:38:30.673Z,66.86
2023-08-15T07:40:58.904Z,65.54
2023-08-15T07:43:26.904Z,65.18
2023-08-15T07:45:54.589Z,65.22
2023-08-15T07:48:22.345Z,65.21
2023-08-15T07:50:50.713Z,65.46
2023-08-15T07:53:18.368Z,64.44
2023-08-15T07:55:46.496Z,63.35
2023-08-15T07:58:15.706Z,63.37
2023-08-15T08:00:45.728Z,62.83
2023-08-15T08:03:13.768Z,63.04
2023-08-15T08:05:41.450Z,62.33
2023-08-15T08:08:09.607Z,62.33
2023-08-15T08:10:40.101Z,61.25
2023-08-15T08:13:13.259Z,62.16
2023-08-15T08:15:44.339Z,62.47
2023-08-15T08:18:11.899Z,62.48
2023-08-15T08:20:41.039Z,62.16
2023-08-15T08:23:09.401Z,62.79
2023-08-15T08:25:37.452Z,62.33
2023-08-15T08:28:06.191Z,61.99
2023-08-15T08:30:36.155Z,61.23
2023-08-15T08:33:06.122Z,61.25
2023-08-15T08:35:33.899Z,60.25
2023-08-15T08:38:02.552Z,59.75
2023-08-15T08:40:33.830Z,58.88
2023-08-15T08:43:02.593Z,58.37
2023-08-15T08:45:35.134Z,58.02
2023-08-15T08:48:10.690Z,57.62
2023-08-15T08:50:39.100Z,57.30
2023-08-15T08:53:09.208Z,56.99
2023-08-15T08:55:40.383Z,57.47
2023-08-15T08:58:12.010Z,58.55
2023-08-15T09:00:44.106Z,58.72
2023-08-15T09:03:11.741Z,58.92
2023-08-15T09:05:43.944Z,57.90
2023-08-15T09:08:12.759Z,58.35
2023-08-15T09:10:41.747Z,58.53
2023-08-15T09:13:11.647Z,58.51
2023-08-15T09:15:44.677Z,59.46
2023-08-15T09:18:20.425Z,59.06
2023-08-15T09:20:51.031Z,58.05
2023-08-15T09:23:19.356Z,56.74
2023-08-15T09:25:56.651Z,56.11
2023-08-15T09:28:25.045Z,55.73
2023-08-15T09:30:57.964Z,52.46
2023-08-15T09:33:27.530Z,48.61
2023-08-15T09:35:59.030Z,47.70
2023-08-15T09:38:28.791Z,45.40
2023-08-15T09:40:58.204Z,44.03
2023-08-15T09:43:25.843Z,44.69
2023-08-15T09:45:58.125Z,44.39
2023-08-15T09:48:30.931Z,43.24
2023-08-15T09:50:58.787Z,42.90
2023-08-15T09:53:26.595Z,43.83
2023-08-15T09:55:55.017Z,44.82
2023-08-15T09:58:23.577Z,42.30
2023-08-15T10:00:54.278Z,42.23
2023-08-15T10:03:31.070Z,40.93
2023-08-15T10:06:02.494Z,41.50
2023-08-15T10:08:32.268Z,41.28
2023-08-15T10:11:01.112Z,39.01
2023-08-15T10:13:33.322Z,38.85
2023-08-15T10:16:03.342Z,39.49
2023-08-15T10:18:32.026Z,38.51
2023-08-15T10:21:00.680Z,37.52
2023-08-15T10:23:33.715Z,39.49
2023-08-15T10:26:02.855Z,39.93
2023-08-15T10:28:37.233Z,41.39
2023-08-15T10:31:08.436Z,41.80
2023-08-15T10:33:36.266Z,42.11
2023-08-15T10:36:04.376Z,39.86
2023-08-15T10:38:40.998Z,38.49
2023-08-15T10:41:18.837Z,35.98
2023-08-15T10:43:51.400Z,35.83
2023-08-15T10:46:26.510Z,36.72
2023-08-15T10:49:03.493Z,36.31
2023-08-15T10:51:39.860Z,38.60
2023-08-15T10:54:13.078Z,38.13
2023-08-15T10:56:42.607Z,40.74
2023-08-15T10:59:13.917Z,40.38
2023-08-15T11:01:48.048Z,37.98
2023-08-15T11:04:21.273Z,37.42
2023-08-15T11:06:52.644Z,38.11
2023-08-15T11:09:20.344Z,38.69
2023-08-15T11:11:49.803Z,40.76
2023-08-15T11:14:19.527Z,40.31
2023-08-15T11:16:49.523Z,41.10
2023-08-15T11:19:18.860Z,41.35
2023-08-15T11:21:48.863Z,43.88
2023-08-15T11:24:16.998Z,43.27
2023-08-15T11:26:44.647Z,44.55
2023-08-15T11:29:14.077Z,44.07
2023-08-15T11:31:43.358Z,44.51
2023-08-15T11:34:13.052Z,43.55
2023-08-15T11:36:48.462Z,44.19
2023-08-15T11:39:16.248Z,44.65
2023-08-15T11:41:45.504Z,44.11
2023-08-15T11:44:13.429Z,44.19
2023-08-15T11:49:19.540Z,44.60
2023-08-15T11:51:48.352Z,42.83
2023-08-15T11:54:16.033Z,41.68
2023-08-15T11:56:53.868Z,40.64
2023-08-15T11:59:24.448Z,39.79
2023-08-15T12:01:54.122Z,41.30
2023-08-15T12:04:23.521Z,41.99
2023-08-15T12:06:52.542Z,39.43
2023-08-15T12:09:20.260Z,38.92
2023-08-15T12:11:48.742Z,39.43
2023-08-15T12:14:20.969Z,39.47
2023-08-15T12:16:51.263Z,39.68
2023-08-15T12:19:22.559Z,38.88
2023-08-15T12:21:53.123Z,38.72
2023-08-15T12:24:24.180Z,37.35
2023-08-15T12:26:53.644Z,34.96
2023-08-15T12:29:44.753Z,32.29
2023-08-15T12:32:08.916Z,32.13
2023-08-15T12:34:38.340Z,32.12
2023-08-15T12:37:08.149Z,31.97
2023-08-15T12:39:36.683Z,32.47
2023-08-15T12:42:08.011Z,32.44
2023-08-15T12:44:37.306Z,33.80
2023-08-15T12:47:06.505Z,34.05
2023-08-15T12:49:34.976Z,33.98
2023-08-15T12:52:06.232Z,33.13
2023-08-15T12:54:35.147Z,34.11
2023-08-15T12:57:03.089Z,33.78
2023-08-15T12:59:34.655Z,35.72
2023-08-15T13:02:04.734Z,35.76
2023-08-15T13:04:32.358Z,35.63
2023-08-15T13:07:04.727Z,34.10
2023-08-15T13:09:34.000Z,35.78
2023-08-15T13:12:02.522Z,35.56
2023-08-15T13:14:33.910Z,34.59
2023-08-15T13:17:02.004Z,34.09
2023-08-15T13:19:30.162Z,36.85
2023-08-15T13:21:59.599Z,34.70
2023-08-15T13:24:29.120Z,35.14
2023-08-15T13:26:56.784Z,35.56
2023-08-15T13:29:25.673Z,35.29
2023-08-15T13:31:54.517Z,36.50
2023-08-15T13:34:25.781Z,36.47
2023-08-15T13:36:53.853Z,37.83
2023-08-15T13:39:21.429Z,37.20
2023-08-15T13:41:50.989Z,35.78
2023-08-15T13:44:18.508Z,36.90
2023-08-15T13:46:46.648Z,37.53
2023-08-15T13:49:14.407Z,36.93
2023-08-15T13:51:43.606Z,37.23
2023-08-15T13:54:11.469Z,36.69
2023-08-15T13:56:40.275Z,35.17
2023-08-15T14:00:52.740Z,34.47
2023-08-15T14:03:21.434Z,34.60
2023-08-15T14:05:50.407Z,36.49
2023-08-15T14:08:18.160Z,37.53
2023-08-15T14:10:48.843Z,39.25
2023-08-15T14:13:16.871Z,40.15
2023-08-15T14:15:44.314Z,41.05
2023-08-15T14:18:13.717Z,41.47
2023-08-15T14:20:41.857Z,41.73
2023-08-15T14:23:09.459Z,41.53
2023-08-15T14:25:38.277Z,42.29
2023-08-15T14:28:08.037Z,42.34
2023-08-15T14:30:35.931Z,43.69
2023-08-15T14:33:05.614Z,43.95
2023-08-15T14:35:34.369Z,44.34
2023-08-15T14:38:04.455Z,44.21
2023-08-15T14:40:34.867Z,43.37
2023-08-15T14:43:03.880Z,42.93
2023-08-15T14:45:31.629Z,42.70
2023-08-15T14:47:59.267Z,42.25
2023-08-15T14:50:27.060Z,42.51
2023-08-15T14:52:54.797Z,42.29
2023-08-15T14:55:24.736Z,41.19
2023-08-15T14:57:55.137Z,41.59
2023-08-15T15:00:25.975Z,41.97
2023-08-15T15:02:54.281Z,41.65
2023-08-15T15:05:23.764Z,43.38
2023-08-15T15:07:57.358Z,43.71
2023-08-15T15:10:25.071Z,43.46
2023-08-15T15:12:54.541Z,44.31
2023-08-15T15:15:28.032Z,44.23
2023-08-15T15:18:09.313Z,44.24
2023-08-15T15:20:37.934Z,45.16
2023-08-15T15:23:05.705Z,44.97
2023-08-15T15:25:34.547Z,44.44
2023-08-15T15:28:05.245Z,43.51
2023-08-15T15:30:33.009Z,44.23
2023-08-15T15:33:03.854Z,43.40
2023-08-15T15:35:31.789Z,41.96
2023-08-15T15:37:59.559Z,42.34
2023-08-15T15:40:36.854Z,45.80
2023-08-15T15:43:04.712Z,45.55
2023-08-15T15:45:37.442Z,47.49
2023-08-15T15:48:05.903Z,48.04
2023-08-15T15:50:38.249Z,48.07
2023-08-15T15:53:07.496Z,47.30
2023-08-15T15:55:39.269Z,45.83
2023-08-15T15:58:07.043Z,45.87
2023-08-15T16:00:34.791Z,45.41
2023-08-15T16:03:03.521Z,46.20
2023-08-15T16:05:33.800Z,46.79
2023-08-15T16:08:02.854Z,47.92
2023-08-15T16:10:33.401Z,49.20
2023-08-15T16:13:01.490Z,50.48
2023-08-15T16:15:29.460Z,51.04
2023-08-15T16:17:58.600Z,51.07
2023-08-15T16:20:26.494Z,50.97
2023-08-15T16:22:54.226Z,51.84
2023-08-15T16:25:23.201Z,52.35
2023-08-15T16:27:57.859Z,52.72
2023-08-15T16:30:26.467Z,52.32
2023-08-15T16:32:58.249Z,52.76
2023-08-15T16:35:27.053Z,52.87
2023-08-15T16:38:00.362Z,53.01
2023-08-15T16:40:30.412Z,51.99
2023-08-15T16:43:12.822Z,51.96
2023-08-15T16:45:41.595Z,52.42
2023-08-15T16:48:14.974Z,52.61
2023-08-15T16:50:45.423Z,53.21
2023-08-15T16:53:13.696Z,52.76
2023-08-15T16:55:41.337Z,52.71
2023-08-15T16:58:13.848Z,52.73
2023-08-15T17:00:41.579Z,52.13
2023-08-15T17:03:13.182Z,51.94
2023-08-15T17:05:42.303Z,51.76
2023-08-15T17:08:11.833Z,51.36
2023-08-15T17:10:40.614Z,52.22
2023-08-15T17:13:11.752Z,52.57
2023-08-15T17:15:46.498Z,48.08
2023-08-15T17:18:15.716Z,45.74
2023-08-15T17:20:51.553Z,47.55
2023-08-15T17:23:24.307Z,48.61
2023-08-15T17:25:53.584Z,46.26
2023-08-15T17:28:21.382Z,47.51
2023-08-15T17:30:52.131Z,44.06
2023-08-15T17:33:22.854Z,43.30
2023-08-15T17:35:51.668Z,43.20
2023-08-15T17:38:19.135Z,43.54
2023-08-15T17:40:50.372Z,47.84
2023-08-15T17:43:18.999Z,49.63
2023-08-15T17:45:51.126Z,49.37
2023-08-15T17:48:22.674Z,49.64
2023-08-15T17:50:50.749Z,47.86
2023-08-15T17:53:33.347Z,47.33
2023-08-15T17:56:03.848Z,47.47
2023-08-15T17:58:51.654Z,47.70
2023-08-15T18:01:20.286Z,47.92
2023-08-15T18:03:50.561Z,47.75
2023-08-15T18:06:19.743Z,48.10
2023-08-15T18:08:50.781Z,48.90
2023-08-15T18:11:24.062Z,49.19
2023-08-15T18:13:51.826Z,49.45
2023-08-15T18:16:26.634Z,49.82
2023-08-15T18:18:56.059Z,50.06
2023-08-15T18:21:30.614Z,50.38
2023-08-15T18:23:58.332Z,50.77
2023-08-15T18:26:27.889Z,50.74
2023-08-15T18:28:57.353Z,50.81
2023-08-15T18:31:26.678Z,51.02
2023-08-15T18:33:54.837Z,51.33
2023-08-15T18:36:25.370Z,51.43
2023-08-15T18:38:55.065Z,51.51
2023-08-15T18:41:23.916Z,51.49
2023-08-15T18:43:51.423Z,51.65
2023-08-15T18:46:20.363Z,51.90
2023-08-15T18:48:49.821Z,52.38
2023-08-15T18:51:17.583Z,52.34
2023-08-15T18:53:46.218Z,52.81
2023-08-15T18:56:13.810Z,53.25
2023-08-15T18:58:45.119Z,53.34
2023-08-15T19:01:15.422Z,53.70
2023-08-15T19:03:44.099Z,53.65
2023-08-15T19:06:14.686Z,54.21
2023-08-15T19:08:43.212Z,53.93
2023-08-15T19:11:11.970Z,54.08
2023-08-15T19:13:39.744Z,54.44
2023-08-15T19:16:07.610Z,54.41
2023-08-15T19:18:35.201Z,54.66
2023-08-15T19:21:04.437Z,54.71
2023-08-15T19:23:32.336Z,55.50
2023-08-15T19:26:00.463Z,55.62
2023-08-15T19:28:29.839Z,55.66
2023-08-15T19:30:58.424Z,55.74
2023-08-15T19:33:27.388Z,55.95
2023-08-15T19:35:54.985Z,56.03
2023-08-15T19:38:22.617Z,56.37
2023-08-15T19:40:50.141Z,56.42
2023-08-15T19:43:19.331Z,56.12
2023-08-15T19:45:49.356Z,56.29
2023-08-15T19:48:19.978Z,56.02
2023-08-15T19:50:47.906Z,56.36
2023-08-15T19:53:17.606Z,56.21
2023-08-15T19:55:45.267Z,56.50
2023-08-15T19:58:13.722Z,56.33
2023-08-15T20:00:42.487Z,56.27
2023-08-15T20:03:10.272Z,56.96
2023-08-15T20:05:37.867Z,57.75
2023-08-15T20:08:06.321Z,57.95
2023-08-15T20:10:34.736Z,57.94
2023-08-15T20:13:03.539Z,58.62
2023-08-15T20:15:38.003Z,58.79
2023-08-15T20:18:09.532Z,59.52
2023-08-15T20:20:43.184Z,59.52
2023-08-15T20:23:10.768Z,60.04
2023-08-15T20:25:38.381Z,60.21
2023-08-15T20:28:06.502Z,61.10
2023-08-15T20:30:34.880Z,61.40
2023-08-15T20:33:04.662Z,61.27
2023-08-15T20:35:36.053Z,62.07
2023-08-15T20:38:03.678Z,62.39
2023-08-15T20:40:35.087Z,62.93
2023-08-15T20:43:06.539Z,62.90
2023-08-15T20:45:35.464Z,63.55
2023-08-15T20:48:03.501Z,63.41
2023-08-15T20:50:31.529Z,63.53
2023-08-15T20:52:59.134Z,63.96
2023-08-15T20:55:28.776Z,63.96
2023-08-15T20:57:56.904Z,64.41
2023-08-15T21:00:24.757Z,64.99
2023-08-15T21:02:52.600Z,65.13
2023-08-15T21:06:07.008Z,65.37
2023-08-15T21:08:34.691Z,65.51
2023-08-15T21:11:04.393Z,65.57
2023-08-15T21:13:31.968Z,65.63
2023-08-15T21:15:59.794Z,65.98
2023-08-15T21:18:41.937Z,66.21
2023-08-15T21:21:09.585Z,66.17
2023-08-15T21:23:37.400Z,66.13
2023-08-15T21:26:04.981Z,66.38
2023-08-15T21:28:39.913Z,66.66
2023-08-15T21:31:11.861Z,66.37
2023-08-15T21:33:39.529Z,66.72
2023-08-15T21:36:10.360Z,66.48
2023-08-15T21:38:40.672Z,66.75
2023-08-15T21:41:11.404Z,67.16
2023-08-15T21:43:39.677Z,67.48
2023-08-15T21:46:07.891Z,67.35
2023-08-15T21:48:35.847Z,67.59
2023-08-15T21:51:06.086Z,67.99
2023-08-15T21:53:34.206Z,68.18
2023-08-15T21:56:02.971Z,68.18
2023-08-15T21:58:30.417Z,68.15
2023-08-15T22:00:58.368Z,67.98
2023-08-15T22:03:26.770Z,68.62
2023-08-15T22:05:55.608Z,69.16
2023-08-15T22:08:28.112Z,69.18
2023-08-15T22:10:55.690Z,69.33
2023-08-15T22:13:23.974Z,69.42
2023-08-15T22:15:52.125Z,69.82
2023-08-15T22:18:21.813Z,70.18
2023-08-15T22:20:51.217Z,70.32
2023-08-15T22:23:21.999Z,70.70
2023-08-15T22:25:51.389Z,71.06
2023-08-15T22:28:19.780Z,71.38
2023-08-15T22:30:51.688Z,71.17
2023-08-15T22:33:22.536Z,71.23
2023-08-15T22:35:54.629Z,71.49
2023-08-15T22:38:23.585Z,71.84
2023-08-15T22:40:51.294Z,72.16
2023-08-15T22:43:20.354Z,72.08
2023-08-15T22:45:50.339Z,72.58
2023-08-15T22:48:18.113Z,72.45
2023-08-15T22:50:45.690Z,72.56
2023-08-15T22:53:18.121Z,72.40
2023-08-15T22:55:46.904Z,72.75
2023-08-15T22:58:19.495Z,72.55
2023-08-15T23:00:48.000Z,72.91
2023-08-15T23:03:17.289Z,72.98
2023-08-15T23:05:48.315Z,73.34
2023-08-15T23:08:16.961Z,73.40
2023-08-15T23:10:56.044Z,73.67
2023-08-15T23:13:23.772Z,73.64
2023-08-15T23:15:51.835Z,74.15
2023-08-15T23:18:21.659Z,74.30
2023-08-15T23:20:49.757Z,74.30
2023-08-15T23:23:23.033Z,74.06
2023-08-15T23:25:51.824Z,74.27
2023-08-15T23:28:19.992Z,74.40
2023-08-15T23:30:49.924Z,74.75
2023-08-15T23:33:17.663Z,74.92
2023-08-15T23:35:46.630Z,74.88
2023-08-15T23:38:16.700Z,75.05
2023-08-15T23:40:47.344Z,75.29
2023-08-15T23:43:15.703Z,75.75
2023-08-15T23:45:51.334Z,75.82
2023-08-15T23:48:20.768Z,75.90
2023-08-15T23:50:52.667Z,75.98
2023-08-15T23:53:21.689Z,75.95
2023-08-15T23:55:50.127Z,76.02
2023-08-15T23:58:17.912Z,76.26
